MSC Barbara — HODU — position and weather

sailwx.info

Track history (hours):
 
Tides and Currents Weather Stations Pressure Air Temp Water Temp Dewpoint Dewpoint Depression Visibility Wind Speed Wind Dir Waves Ship Positions

MSC Barbara

Last reported at 2016-Feb-04 00:14 UTC. Time now 2016-Feb-13 17:15 UTC.
Position S 13°05' W 038°17'.
Warning: this ship's position is 9 days out of date.

Length 303 m; draft 12 m.

Type: Ship. MMSI: 353775000.

Date/timePositionNaut miles runAvg speedWind from/ knotsBaromVisibWave heightAir tempDewpointWater temp
2016-Feb-04 00:14S 13°05' W 038°17'1115.5
2016-Feb-03 23:32S 13°07' W 038°28'1010.4
2016-Feb-03 22:33S 12°58' W 038°33'2 2.5
2016-Feb-03 21:33S 12°57' W 038°30'0 0.0
2016-Feb-03 20:33S 12°57' W 038°30'0 0.0
2016-Feb-03 19:33S 12°57' W 038°30'0 0.0
2016-Feb-03 18:33S 12°57' W 038°30'0 0.0
2016-Feb-03 17:33S 12°57' W 038°30'0 0.0
2016-Feb-03 16:33S 12°57' W 038°30'0 0.0
2016-Feb-03 15:33S 12°57' W 038°30'2 2.3
2016-Feb-03 14:33S 12°58' W 038°33'6 0.6
2016-Feb-03 03:33S 13°04' W 038°35'1110.1
2016-Feb-03 02:30S 13°14' W 038°34'  
2016-Jan-31 19:33S 23°06' W 041°37'1212.2
2016-Jan-31 18:33S 23°13' W 041°48'1312.7
2016-Jan-31 17:33S 23°17' W 042°01'11312.5
2016-Jan-31 08:33S 23°50' W 043°59'1212.2
2016-Jan-31 07:33S 23°54' W 044°11'6312.4
2016-Jan-31 02:28S 24°12' W 045°17'1112.4
2016-Jan-31 01:33S 24°16' W 045°29'1512.7
2016-Jan-31 00:24S 24°16' W 045°45'1112.8
2016-Jan-30 23:33S 24°14' W 045°57'1313.0
2016-Jan-30 22:33S 24°09' W 046°10'1212.4
2016-Jan-30 21:33S 24°01' W 046°20'6 0.4
2016-Jan-30 07:04S 23°55' W 046°21'0 0.0
2016-Jan-30 05:30S 23°55' W 046°21'4 4.5
2016-Jan-30 04:33S 23°58' W 046°18'6 6.5
2016-Jan-30 03:33S 24°04' W 046°22'9 9.4
2016-Jan-30 02:33S 24°13' W 046°19'1 0.7
2016-Jan-30 01:33S 24°13' W 046°19'0 0.0
2016-Jan-30 00:33S 24°13' W 046°19'0 0.0
2016-Jan-29 23:32S 24°13' W 046°19'0 0.0
2016-Jan-29 22:32S 24°13' W 046°19'0 0.0
2016-Jan-29 21:31S 24°13' W 046°19'0 0.0
2016-Jan-29 20:28S 24°13' W 046°19'0 0.0
2016-Jan-29 19:33S 24°13' W 046°19'0 0.0
2016-Jan-29 18:33S 24°13' W 046°19'0 0.0
2016-Jan-29 17:33S 24°13' W 046°19'0 0.0
2016-Jan-29 16:32S 24°13' W 046°19'0 0.0
2016-Jan-29 15:32S 24°13' W 046°19'0 0.0
2016-Jan-29 14:31S 24°13' W 046°19'0 0.0
2016-Jan-29 13:25S 24°13' W 046°19'0 0.0
2016-Jan-29 12:33S 24°13' W 046°19'0 0.0
2016-Jan-29 11:30S 24°13' W 046°19'0 0.0
2016-Jan-29 10:30S 24°13' W 046°19'0 0.0
2016-Jan-29 09:29S 24°13' W 046°19'0 0.1
2016-Jan-29 08:33S 24°13' W 046°19'4 3.6
2016-Jan-29 07:33S 24°15' W 046°22'10 9.9
2016-Jan-29 06:33S 24°22' W 046°30'1010.1
2016-Jan-29 05:33S 24°31' W 046°35'1010.1
2016-Jan-29 04:33S 24°39' W 046°42'1010.0
2016-Jan-29 03:33S 24°48' W 046°48'1110.1
2016-Jan-29 02:27S 24°56' W 046°55'159 3.9
2016-Jan-27 09:33S 27°21' W 048°10'1211.2
2016-Jan-27 08:30S 27°32' W 048°11'1111.2
2016-Jan-27 07:33S 27°43' W 048°11'  
Track history (hours):
 
Tides and Currents Weather Stations Pressure Air Temp Water Temp Dewpoint Dewpoint Depression Visibility Wind Speed Wind Dir Waves Ship Positions

MSC Barbara

Last reported at 2016-Feb-04 00:14 UTC. Time now 2016-Feb-13 17:15 UTC.
Position S 13°05' W 038°17'.
Warning: this ship's position is 9 days out of date.

Length 303 m; draft 12 m.

Type: Ship. MMSI: 353775000.

Date/timePositionNaut miles runAvg speedWind from/ knotsBaromVisibWave heightAir tempDewpointWater temp
2016-Feb-04 00:14S 13°05' W 038°17'1115.5
2016-Feb-03 23:32S 13°07' W 038°28'1010.4
2016-Feb-03 22:33S 12°58' W 038°33'2 2.5
2016-Feb-03 21:33S 12°57' W 038°30'0 0.0
2016-Feb-03 20:33S 12°57' W 038°30'0 0.0
2016-Feb-03 19:33S 12°57' W 038°30'0 0.0
2016-Feb-03 18:33S 12°57' W 038°30'0 0.0
2016-Feb-03 17:33S 12°57' W 038°30'0 0.0
2016-Feb-03 16:33S 12°57' W 038°30'0 0.0
2016-Feb-03 15:33S 12°57' W 038°30'2 2.3
2016-Feb-03 14:33S 12°58' W 038°33'6 0.6
2016-Feb-03 03:33S 13°04' W 038°35'1110.1
2016-Feb-03 02:30S 13°14' W 038°34'  
2016-Jan-31 19:33S 23°06' W 041°37'1212.2
2016-Jan-31 18:33S 23°13' W 041°48'1312.7
2016-Jan-31 17:33S 23°17' W 042°01'11312.5
2016-Jan-31 08:33S 23°50' W 043°59'1212.2
2016-Jan-31 07:33S 23°54' W 044°11'6312.4
2016-Jan-31 02:28S 24°12' W 045°17'1112.4
2016-Jan-31 01:33S 24°16' W 045°29'1512.7
2016-Jan-31 00:24S 24°16' W 045°45'1112.8
2016-Jan-30 23:33S 24°14' W 045°57'1313.0
2016-Jan-30 22:33S 24°09' W 046°10'1212.4
2016-Jan-30 21:33S 24°01' W 046°20'6 0.4
2016-Jan-30 07:04S 23°55' W 046°21'0 0.0
2016-Jan-30 05:30S 23°55' W 046°21'4 4.5
2016-Jan-30 04:33S 23°58' W 046°18'6 6.5
2016-Jan-30 03:33S 24°04' W 046°22'9 9.4
2016-Jan-30 02:33S 24°13' W 046°19'1 0.7
2016-Jan-30 01:33S 24°13' W 046°19'0 0.0
2016-Jan-30 00:33S 24°13' W 046°19'0 0.0
2016-Jan-29 23:32S 24°13' W 046°19'0 0.0
2016-Jan-29 22:32S 24°13' W 046°19'0 0.0
2016-Jan-29 21:31S 24°13' W 046°19'0 0.0
2016-Jan-29 20:28S 24°13' W 046°19'0 0.0
2016-Jan-29 19:33S 24°13' W 046°19'0 0.0
2016-Jan-29 18:33S 24°13' W 046°19'0 0.0
2016-Jan-29 17:33S 24°13' W 046°19'0 0.0
2016-Jan-29 16:32S 24°13' W 046°19'0 0.0
2016-Jan-29 15:32S 24°13' W 046°19'0 0.0
2016-Jan-29 14:31S 24°13' W 046°19'0 0.0
2016-Jan-29 13:25S 24°13' W 046°19'0 0.0
2016-Jan-29 12:33S 24°13' W 046°19'0 0.0
2016-Jan-29 11:30S 24°13' W 046°19'0 0.0
2016-Jan-29 10:30S 24°13' W 046°19'0 0.0
2016-Jan-29 09:29S 24°13' W 046°19'0 0.1
2016-Jan-29 08:33S 24°13' W 046°19'4 3.6
2016-Jan-29 07:33S 24°15' W 046°22'10 9.9
2016-Jan-29 06:33S 24°22' W 046°30'1010.1
2016-Jan-29 05:33S 24°31' W 046°35'1010.1
2016-Jan-29 04:33S 24°39' W 046°42'1010.0
2016-Jan-29 03:33S 24°48' W 046°48'1110.1
2016-Jan-29 02:27S 24°56' W 046°55'159 3.9
2016-Jan-27 09:33S 27°21' W 048°10'1211.2
2016-Jan-27 08:30S 27°32' W 048°11'1111.2
2016-Jan-27 07:33S 27°43' W 048°11'  

Dump ship's entire track history